Time;durP1;ratioP1;P1;durP2;ratioP2;P2;SDS_P1;SDS_P2;PMS_P1;PMS_P2;Temp;Humidity;BMP_temperature;BMP_pressure;BME280_temperature;BME280_humidity;BME280_pressure;Samples;Min_cycle;Max_cycle;Signal;HPM_P1;HPM_P2
2023/10/08 00:01:21;;;;;;;3.45;1.38;;;20.80;98.80;;;;;;5046099;28;20283;-68
2023/10/08 00:03:50;;;;;;;3.20;1.48;;;20.90;97.90;;;;;;5012083;28;20048;-68
2023/10/08 00:06:23;;;;;;;2.67;1.38;;;20.90;97.50;;;;;;5045070;28;20048;-68
2023/10/08 00:08:49;;;;;;;2.75;1.10;;;20.80;98.70;;;;;;5067496;28;20060;-68
2023/10/08 00:11:17;;;;;;;3.33;1.40;;;20.70;99.20;;;;;;5076836;28;20432;-68
2023/10/08 00:13:43;;;;;;;2.55;1.27;;;21.00;97.30;;;;;;5087805;28;20508;-68
2023/10/08 00:16:16;;;;;;;2.85;1.00;;;20.70;98.80;;;;;;5086776;28;20080;-66
2023/10/08 00:18:49;;;;;;;2.35;1.20;;;;;;;;;;5042737;28;20045;-68
2023/10/08 00:23:59;;;;;;;3.20;1.27;;;;;;;;;;5040664;28;20080;-67
2023/10/08 00:26:29;;;;;;;2.67;1.17;;;20.70;98.90;;;;;;5070064;28;20127;-68
2023/10/08 00:29:00;;;;;;;2.80;1.05;;;20.80;98.60;;;;;;5058020;28;20049;-68
2023/10/08 00:31:37;;;;;;;3.13;0.93;;;20.90;97.80;;;;;;5058773;28;20382;-68
2023/10/08 00:34:05;;;;;;;3.00;0.93;;;20.70;98.50;;;;;;5064379;28;20136;-69
2023/10/08 00:36:31;;;;;;;2.30;1.08;;;20.60;97.50;;;;;;5059026;28;20053;-68
2023/10/08 00:39:00;;;;;;;3.65;1.27;;;20.70;97.60;;;;;;5070432;28;20057;-68
2023/10/08 00:41:30;;;;;;;2.42;0.98;;;20.80;98.50;;;;;;5042084;28;20048;-68
2023/10/08 00:43:59;;;;;;;1.70;1.00;;;20.80;98.90;;;;;;5075081;28;20044;-68
2023/10/08 00:47:11;;;;;;;2.67;1.10;;;;;;;;;;5074419;28;20133;-68
2023/10/08 00:49:38;;;;;;;4.05;1.35;;;20.70;98.40;;;;;;5071860;28;20494;-67
2023/10/08 00:54:48;;;;;;;3.00;1.08;;;20.70;98.90;;;;;;5057750;28;20114;-67
2023/10/08 00:57:21;;;;;;;2.72;1.08;;;20.70;97.20;;;;;;5074358;28;20528;-67
2023/10/08 00:59:52;;;;;;;1.92;0.88;;;20.70;98.80;;;;;;5041614;28;20044;-67
2023/10/08 01:02:24;;;;;;;2.72;1.20;;;20.80;98.50;;;;;;5055870;28;20056;-68
2023/10/08 01:04:50;;;;;;;1.90;1.00;;;20.70;98.60;;;;;;5035528;28;20120;-67
2023/10/08 01:07:16;;;;;;;2.30;0.82;;;20.70;98.50;;;;;;5050026;28;20048;-65
2023/10/08 01:09:43;;;;;;;2.33;1.00;;;20.80;98.50;;;;;;5041899;28;20127;-66
2023/10/08 01:12:15;;;;;;;2.97;1.00;;;20.80;98.50;;;;;;5046821;28;20127;-68
2023/10/08 01:14:42;;;;;;;3.00;1.27;;;20.60;98.20;;;;;;5056805;28;20088;-66
2023/10/08 01:17:19;;;;;;;2.97;0.93;;;20.60;98.30;;;;;;5027752;28;20080;-66
2023/10/08 01:19:54;;;;;;;4.40;1.10;;;20.60;96.90;;;;;;5037161;28;20059;-65
2023/10/08 01:22:21;;;;;;;2.60;1.00;;;;;;;;;;5067901;28;20496;-66
2023/10/08 01:24:51;;;;;;;2.40;1.00;;;20.50;96.30;;;;;;5058958;28;20044;-67
2023/10/08 01:27:24;;;;;;;1.88;0.80;;;20.50;98.10;;;;;;5065486;28;20053;-68
2023/10/08 01:29:53;;;;;;;1.90;1.00;;;20.80;96.90;;;;;;5084559;28;20055;-66
2023/10/08 01:32:19;;;;;;;2.90;1.10;;;;;;;;;;5049213;28;20044;-66
2023/10/08 01:34:46;;;;;;;3.42;1.10;;;20.60;98.30;;;;;;5050803;28;20047;-66
2023/10/08 01:37:18;;;;;;;2.55;0.93;;;20.60;97.20;;;;;;5045859;28;20047;-66
2023/10/08 01:39:50;;;;;;;2.47;1.10;;;20.50;97.30;;;;;;5055324;28;20448;-65
2023/10/08 01:42:17;;;;;;;2.67;1.10;;;20.60;98.10;;;;;;5065764;28;20049;-66
2023/10/08 01:44:50;;;;;;;3.03;1.20;;;20.60;98.20;;;;;;5038190;28;20396;-66
2023/10/08 01:47:16;;;;;;;3.88;1.20;;;20.50;98.30;;;;;;5020542;28;20045;-66
2023/10/08 01:49:46;;;;;;;2.72;0.95;;;20.60;97.20;;;;;;5036632;28;20475;-66
2023/10/08 01:52:22;;;;;;;2.78;1.00;;;20.60;97.10;;;;;;5054283;28;20041;-65
2023/10/08 01:54:54;;;;;;;2.15;0.90;;;20.70;98.10;;;;;;5052885;28;20041;-66
2023/10/08 01:57:19;;;;;;;3.08;1.15;;;20.60;98.50;;;;;;5057238;28;20048;-66
2023/10/08 01:59:45;;;;;;;1.60;0.77;;;20.60;98.10;;;;;;5078322;28;20079;-66
2023/10/08 02:02:12;;;;;;;3.50;1.20;;;20.60;98.10;;;;;;5059069;28;20053;-66
2023/10/08 02:04:39;;;;;;;2.95;1.08;;;20.70;98.40;;;;;;5073300;28;20452;-65
2023/10/08 02:07:08;;;;;;;4.75;1.27;;;20.70;98.10;;;;;;5071125;28;20071;-66
2023/10/08 02:09:37;;;;;;;2.53;1.10;;;20.60;98.00;;;;;;5068122;28;20037;-68
2023/10/08 02:12:03;;;;;;;3.15;0.90;;;20.80;98.40;;;;;;5068473;28;20051;-68
2023/10/08 02:14:31;;;;;;;4.63;1.20;;;;;;;;;;5053745;28;20045;-68
2023/10/08 02:17:01;;;;;;;4.53;1.20;;;;;;;;;;5068535;28;20047;-68
2023/10/08 02:19:28;;;;;;;3.15;0.98;;;20.70;96.10;;;;;;5070980;28;20118;-67
2023/10/08 02:21:54;;;;;;;2.00;0.85;;;20.90;97.30;;;;;;5038469;28;20051;-66
2023/10/08 02:24:24;;;;;;;2.83;1.00;;;;;;;;;;5040419;28;20045;-67
2023/10/08 02:26:54;;;;;;;3.30;1.02;;;20.50;98.00;;;;;;5062486;28;20056;-68
2023/10/08 02:29:25;;;;;;;2.97;1.00;;;20.70;98.00;;;;;;5054210;28;20056;-68
2023/10/08 02:31:52;;;;;;;3.38;1.00;;;20.60;97.90;;;;;;5069893;28;20041;-68
2023/10/08 02:34:19;;;;;;;3.28;1.10;;;20.80;96.90;;;;;;5059253;28;20066;-68
2023/10/08 02:36:46;;;;;;;2.60;1.13;;;;;;;;;;5063810;28;20139;-68
2023/10/08 02:39:24;;;;;;;2.58;1.00;;;20.60;97.90;;;;;;5065489;28;20045;-69
2023/10/08 02:41:50;;;;;;;3.83;1.13;;;20.40;97.90;;;;;;5056095;28;20056;-68
2023/10/08 02:44:16;;;;;;;2.92;0.88;;;20.80;98.30;;;;;;5071585;28;20358;-68
2023/10/08 02:46:49;;;;;;;3.58;1.00;;;20.80;96.90;;;;;;5072257;28;20048;-68
2023/10/08 02:49:20;;;;;;;3.80;1.15;;;20.70;97.10;;;;;;5053352;28;20394;-68
2023/10/08 02:51:47;;;;;;;3.20;0.95;;;20.70;97.80;;;;;;5036815;28;20079;-68
2023/10/08 02:54:18;;;;;;;2.90;1.05;;;20.60;97.80;;;;;;5031038;28;20056;-68
2023/10/08 02:56:51;;;;;;;1.77;0.70;;;20.70;97.80;;;;;;5053211;28;20502;-68
2023/10/08 02:59:18;;;;;;;4.68;1.30;;;20.80;97.90;;;;;;5053317;28;20041;-68
2023/10/08 03:01:43;;;;;;;2.13;0.98;;;20.50;96.80;;;;;;5059484;28;20504;-68
2023/10/08 03:04:18;;;;;;;3.47;1.15;;;20.60;97.70;;;;;;5056629;28;20048;-68
2023/10/08 03:06:49;;;;;;;5.60;1.48;;;20.50;97.80;;;;;;5048518;28;20076;-68
2023/10/08 03:09:20;;;;;;;2.35;0.90;;;20.60;97.70;;;;;;5038816;28;20106;-68
2023/10/08 03:11:48;;;;;;;4.22;1.17;;;20.70;97.70;;;;;;5075876;28;20119;-68
2023/10/08 03:14:23;;;;;;;2.42;1.00;;;20.60;96.80;;;;;;5026105;28;20045;-68
2023/10/08 03:16:53;;;;;;;2.92;0.88;;;20.50;96.80;;;;;;5059022;28;20120;-68
2023/10/08 03:19:21;;;;;;;4.15;1.13;;;20.70;97.70;;;;;;5070376;28;20098;-67
2023/10/08 03:21:57;;;;;;;2.75;0.80;;;20.70;97.70;;;;;;5060380;28;20041;-68
2023/10/08 03:27:07;;;;;;;2.95;1.20;;;20.60;97.60;;;;;;5067564;28;20472;-68
2023/10/08 03:29:41;;;;;;;3.40;0.90;;;20.70;97.90;;;;;;5064672;28;20405;-68
2023/10/08 03:32:13;;;;;;;3.53;1.10;;;20.80;96.40;;;;;;5061635;28;20110;-67
2023/10/08 03:34:43;;;;;;;3.97;1.20;;;;;;;;;;5069288;28;20573;-68
2023/10/08 03:37:15;;;;;;;2.60;0.90;;;20.60;97.50;;;;;;5068691;28;20049;-66
2023/10/08 03:42:26;;;;;;;3.60;1.38;;;20.80;97.60;;;;;;5061649;28;20048;-68
2023/10/08 03:44:52;;;;;;;2.50;0.98;;;20.70;97.70;;;;;;5069017;28;20094;-68
2023/10/08 03:47:26;;;;;;;4.18;1.00;;;20.80;97.60;;;;;;5043462;28;20044;-68
2023/10/08 03:49:54;;;;;;;4.57;1.08;;;20.70;96.70;;;;;;5036162;28;20048;-67
2023/10/08 03:52:30;;;;;;;4.10;1.00;;;20.80;98.00;;;;;;5034380;28;20048;-68
2023/10/08 03:55:12;;;;;;;3.13;0.88;;;20.60;97.60;;;;;;5042998;28;20430;-68
2023/10/08 03:57:41;;;;;;;4.70;1.00;;;20.80;97.70;;;;;;5069660;28;20166;-68
2023/10/08 04:00:17;;;;;;;2.90;1.00;;;20.70;97.50;;;;;;5061835;28;20401;-68
2023/10/08 04:02:54;;;;;;;2.50;1.02;;;;;;;;;;5086154;28;20056;-68
2023/10/08 04:05:27;;;;;;;1.67;0.80;;;;;;;;;;5069452;28;20497;-67
2023/10/08 04:11:07;;;;;;;3.30;1.10;;;20.60;97.50;;;;;;5064223;28;20090;-67
2023/10/08 04:13:24;;;;;;;2.72;0.95;;;20.70;97.40;;;;;;5031310;28;20129;-68
2023/10/08 04:15:50;;;;;;;2.17;0.90;;;20.60;97.90;;;;;;5058838;28;20205;-67
2023/10/08 04:18:16;;;;;;;3.08;0.95;;;;;;;;;;5064487;28;20060;-65
2023/10/08 04:21:00;;;;;;;3.13;1.10;;;;;;;;;;5064523;28;20512;-68
2023/10/08 04:23:26;;;;;;;2.80;1.00;;;20.60;97.90;;;;;;5069953;28;20134;-68
2023/10/08 04:25:55;;;;;;;4.32;1.33;;;20.60;97.80;;;;;;5067365;28;20520;-69
2023/10/08 04:28:21;;;;;;;3.95;1.20;;;20.70;97.50;;;;;;5065381;28;20041;-68
2023/10/08 04:30:50;;;;;;;5.15;1.30;;;;;;;;;;5067187;28;20101;-67
2023/10/08 04:33:16;;;;;;;2.53;0.85;;;20.60;97.60;;;;;;5065575;28;20126;-68
2023/10/08 04:35:50;;;;;;;3.92;1.20;;;20.50;95.80;;;;;;5045922;28;20081;-67
2023/10/08 04:38:21;;;;;;;3.25;1.13;;;20.60;96.20;;;;;;5061516;28;20190;-68
2023/10/08 04:40:53;;;;;;;2.92;1.13;;;20.60;97.30;;;;;;5060541;28;20209;-68
2023/10/08 04:43:27;;;;;;;5.47;1.17;;;20.60;97.60;;;;;;5072211;28;20162;-67
2023/10/08 04:45:57;;;;;;;3.38;1.10;;;20.60;97.20;;;;;;5075838;28;20055;-67
2023/10/08 04:48:24;;;;;;;3.67;1.10;;;20.60;96.40;;;;;;5073129;28;20048;-68
2023/10/08 04:51:00;;;;;;;3.78;1.10;;;;;;;;;;5074355;28;20508;-67
2023/10/08 04:53:31;;;;;;;3.25;1.30;;;20.60;97.10;;;;;;5072398;28;20048;-68
2023/10/08 04:56:19;;;;;;;3.38;1.20;;;20.70;97.10;;;;;;5041070;28;20049;-67
2023/10/08 04:58:48;;;;;;;3.50;1.30;;;20.40;97.10;;;;;;5070568;28;20048;-68
2023/10/08 05:01:17;;;;;;;3.33;1.33;;;;;;;;;;5026973;28;20044;-68
2023/10/08 05:11:56;;;;;;;3.08;1.10;;;;;;;;;;5044978;28;20107;-67
2023/10/08 05:17:11;;;;;;;2.42;0.98;;;20.60;97.10;;;;;;5045127;28;20048;-68
2023/10/08 05:25:08;;;;;;;5.70;1.35;;;20.20;95.70;;;;;;5057036;28;20049;-68
2023/10/08 05:27:56;;;;;;;3.53;1.30;;;20.60;95.80;;;;;;5058694;28;20106;-66
2023/10/08 05:36:10;;;;;;;3.90;1.37;;;20.50;97.00;;;;;;5038157;28;20498;-68
2023/10/08 05:54:35;;;;;;;4.97;1.23;;;20.70;95.10;;;;;;5055235;28;20048;-70
2023/10/08 06:05:19;;;;;;;5.20;1.33;;;;;;;;;;5070808;28;20048;-71
2023/10/08 06:13:15;;;;;;;6.72;1.60;;;20.60;96.20;;;;;;5067203;28;20048;-70
2023/10/08 06:16:05;;;;;;;4.93;1.30;;;20.50;95.00;;;;;;5055921;28;20378;-69
2023/10/08 06:18:32;;;;;;;6.10;1.50;;;20.50;96.00;;;;;;5070640;28;20044;-67
2023/10/08 06:21:00;;;;;;;5.07;1.40;;;20.40;95.90;;;;;;5070381;28;20127;-70
2023/10/08 06:23:31;;;;;;;6.25;1.35;;;20.40;95.80;;;;;;5053194;28;20053;-70
2023/10/08 06:25:58;;;;;;;5.18;1.20;;;;;;;;;;5082834;28;20044;-68
2023/10/08 06:28:25;;;;;;;6.95;1.50;;;20.70;94.20;;;;;;5079283;28;20053;-70
2023/10/08 06:30:55;;;;;;;5.68;1.50;;;20.80;95.90;;;;;;5069896;28;20045;-70
2023/10/08 06:33:22;;;;;;;5.35;1.30;;;20.30;95.50;;;;;;5066833;28;20482;-71
2023/10/08 06:36:13;;;;;;;4.95;1.65;;;20.30;95.40;;;;;;5044724;28;20053;-68
2023/10/08 06:38:43;;;;;;;5.72;1.83;;;20.50;95.30;;;;;;5072033;28;20434;-70
2023/10/08 06:43:42;;;;;;;5.32;1.50;;;;;;;;;;5051511;28;20120;-71
2023/10/08 06:46:12;;;;;;;5.90;1.45;;;;;;;;;;5051514;28;20182;-70
2023/10/08 06:48:45;;;;;;;7.75;1.83;;;20.50;93.20;;;;;;5064620;28;20083;-70
2023/10/08 06:51:17;;;;;;;6.05;1.63;;;20.60;94.90;;;;;;5060149;28;20494;-70
2023/10/08 06:53:47;;;;;;;5.35;1.70;;;20.40;94.80;;;;;;5063478;28;20048;-70
2023/10/08 06:56:16;;;;;;;5.07;1.52;;;20.30;93.90;;;;;;5037759;28;20493;-70
2023/10/08 06:58:52;;;;;;;7.82;1.92;;;20.60;94.70;;;;;;5045795;28;20055;-70
2023/10/08 07:01:22;;;;;;;11.88;1.95;;;20.50;94.70;;;;;;5038598;28;20063;-69
2023/10/08 07:03:51;;;;;;;7.25;1.80;;;20.50;94.60;;;;;;5038600;28;20147;-70
2023/10/08 07:06:31;;;;;;;8.05;2.53;;;20.70;94.60;;;;;;5070084;28;20113;-70
2023/10/08 07:08:59;;;;;;;4.70;1.70;;;20.60;94.40;;;;;;5072198;28;20047;-70
2023/10/08 07:11:26;;;;;;;5.68;1.60;;;;;;;;;;5048765;28;20037;-70
2023/10/08 07:13:53;;;;;;;5.45;1.67;;;;;;;;;;5054483;28;20418;-67
2023/10/08 07:16:20;;;;;;;6.47;1.70;;;20.70;94.20;;;;;;5055830;28;20049;-68
2023/10/08 07:18:55;;;;;;;6.05;1.83;;;;;;;;;;5054923;28;20052;-67
2023/10/08 07:21:29;;;;;;;7.43;1.77;;;;;;;;;;5052343;28;20053;-69
2023/10/08 07:23:56;;;;;;;4.82;1.67;;;20.80;92.70;;;;;;5051923;28;20087;-67
2023/10/08 07:26:25;;;;;;;6.88;1.70;;;20.90;94.10;;;;;;5067941;28;20048;-69
2023/10/08 07:28:52;;;;;;;5.22;1.70;;;20.70;93.90;;;;;;5044950;28;20043;-70
2023/10/08 07:31:23;;;;;;;4.57;1.80;;;20.80;93.90;;;;;;5069021;28;20059;-69
2023/10/08 07:33:57;;;;;;;4.28;1.50;;;20.90;93.00;;;;;;5053695;28;20389;-71
2023/10/08 07:36:26;;;;;;;6.75;1.92;;;20.70;93.80;;;;;;5053843;28;20056;-70
2023/10/08 07:38:53;;;;;;;6.57;1.65;;;20.90;93.80;;;;;;5050401;28;20053;-70
2023/10/08 07:41:20;;;;;;;6.80;1.95;;;20.80;93.70;;;;;;5054600;28;20143;-68
2023/10/08 07:43:55;;;;;;;6.25;1.55;;;20.80;93.50;;;;;;5068012;28;20040;-67
2023/10/08 07:46:22;;;;;;;7.55;2.05;;;20.90;93.70;;;;;;5068559;28;20044;-70
2023/10/08 07:48:47;;;;;;;38.75;3.70;;;20.80;92.70;;;;;;5054040;28;20525;-67
2023/10/08 07:51:14;;;;;;;22.23;3.30;;;20.90;93.80;;;;;;5060177;28;20045;-67
2023/10/08 07:53:41;;;;;;;22.25;3.65;;;20.80;93.70;;;;;;5058227;28;20088;-67
2023/10/08 07:56:08;;;;;;;21.13;2.97;;;21.00;93.80;;;;;;5076037;28;20122;-67
2023/10/08 07:58:37;;;;;;;14.82;2.95;;;20.70;92.70;;;;;;5048048;28;20052;-67
2023/10/08 08:01:06;;;;;;;18.55;3.03;;;20.90;93.90;;;;;;5051164;28;20080;-67
2023/10/08 08:03:36;;;;;;;20.30;2.90;;;20.90;93.00;;;;;;5037229;28;20049;-67
2023/10/08 08:06:06;;;;;;;12.73;2.20;;;21.20;92.70;;;;;;5051065;28;20127;-67
2023/10/08 08:08:33;;;;;;;12.82;2.35;;;21.20;93.00;;;;;;5039199;28;20049;-66
2023/10/08 08:11:05;;;;;;;11.57;2.72;;;21.00;93.70;;;;;;5034420;28;20055;-67
2023/10/08 08:13:33;;;;;;;11.25;2.50;;;20.90;92.90;;;;;;5078134;28;20053;-67
2023/10/08 08:16:09;;;;;;;13.80;2.42;;;21.00;93.90;;;;;;5037292;28;20044;-67
2023/10/08 08:18:37;;;;;;;7.95;2.08;;;20.80;92.80;;;;;;5035589;28;20490;-66
2023/10/08 08:21:04;;;;;;;8.25;2.53;;;21.00;93.80;;;;;;5052791;28;20045;-67
2023/10/08 08:23:31;;;;;;;12.00;2.10;;;21.30;92.70;;;;;;5068008;28;20122;-67
2023/10/08 08:26:11;;;;;;;9.02;2.10;;;21.20;93.60;;;;;;5059473;28;20075;-67
2023/10/08 08:28:37;;;;;;;11.38;2.30;;;21.00;93.80;;;;;;5053269;28;20429;-67
2023/10/08 08:31:04;;;;;;;6.45;1.80;;;21.40;93.60;;;;;;5063240;28;20048;-67
2023/10/08 08:33:52;;;;;;;7.55;2.00;;;21.20;92.50;;;;;;5069892;28;20484;-67
2023/10/08 08:36:17;;;;;;;6.72;2.13;;;21.20;93.40;;;;;;5069101;28;20068;-68
2023/10/08 08:38:43;;;;;;;10.82;2.20;;;21.20;93.30;;;;;;5053122;28;20045;-67
2023/10/08 08:41:12;;;;;;;6.30;1.90;;;21.30;92.30;;;;;;5062572;28;20398;-67
2023/10/08 08:43:43;;;;;;;10.35;2.30;;;21.20;92.40;;;;;;5067620;28;20130;-67
2023/10/08 08:46:12;;;;;;;10.02;2.13;;;21.10;92.40;;;;;;5071255;28;20045;-67
2023/10/08 08:48:44;;;;;;;7.50;1.88;;;21.30;93.60;;;;;;5052808;28;20542;-66
2023/10/08 08:51:10;;;;;;;8.95;1.90;;;21.30;93.50;;;;;;5053487;28;20355;-67
2023/10/08 08:53:37;;;;;;;8.00;2.25;;;21.30;93.60;;;;;;5049690;28;20044;-66
2023/10/08 08:56:04;;;;;;;9.48;2.38;;;21.20;93.50;;;;;;5051433;28;20386;-67
2023/10/08 08:58:33;;;;;;;9.30;2.00;;;21.30;92.50;;;;;;5043127;28;20045;-67
2023/10/08 09:00:59;;;;;;;6.25;1.80;;;21.30;93.90;;;;;;5045096;28;20052;-67
2023/10/08 09:03:30;;;;;;;5.72;2.03;;;21.50;92.60;;;;;;5045359;28;20059;-67
2023/10/08 09:05:59;;;;;;;7.28;2.00;;;21.30;92.40;;;;;;5069215;28;20055;-67
2023/10/08 09:08:31;;;;;;;5.13;1.77;;;21.40;93.60;;;;;;5054122;28;20267;-67
2023/10/08 09:11:04;;;;;;;4.93;1.58;;;21.60;92.60;;;;;;5061755;28;20051;-67
2023/10/08 09:13:31;;;;;;;4.80;1.60;;;21.50;92.40;;;;;;5057897;28;20106;-67
2023/10/08 09:16:18;;;;;;;6.78;1.95;;;21.70;93.60;;;;;;5089693;28;20056;-67
2023/10/08 09:18:47;;;;;;;4.97;1.60;;;21.40;92.60;;;;;;5054817;28;20082;-67
2023/10/08 09:21:19;;;;;;;7.07;2.22;;;21.50;93.50;;;;;;5080059;28;20052;-67
2023/10/08 09:23:52;;;;;;;6.10;1.93;;;21.40;92.40;;;;;;5074347;28;20039;-67
2023/10/08 09:26:19;;;;;;;7.88;1.70;;;21.70;91.70;;;;;;5056593;28;20311;-67
2023/10/08 09:28:49;;;;;;;6.78;2.10;;;21.60;92.20;;;;;;5061616;28;20103;-67
2023/10/08 09:31:15;;;;;;;7.60;2.08;;;21.60;92.00;;;;;;5059056;28;20048;-67
2023/10/08 09:33:41;;;;;;;7.28;1.50;;;21.60;92.10;;;;;;5074282;28;20094;-67
2023/10/08 09:36:10;;;;;;;6.03;1.95;;;21.60;92.20;;;;;;5056205;28;20048;-67
2023/10/08 09:38:37;;;;;;;7.43;2.10;;;21.60;93.50;;;;;;5030410;28;20128;-70
2023/10/08 09:41:03;;;;;;;6.78;1.70;;;21.60;92.20;;;;;;5067043;28;20063;-67
2023/10/08 09:43:29;;;;;;;7.30;2.00;;;21.60;93.30;;;;;;5069758;28;20033;-68
2023/10/08 09:46:03;;;;;;;6.60;1.92;;;21.60;93.00;;;;;;5066029;28;20136;-69
2023/10/08 09:48:30;;;;;;;6.90;1.70;;;21.60;91.40;;;;;;5049714;28;20099;-68
2023/10/08 09:50:55;;;;;;;6.53;1.73;;;21.60;91.90;;;;;;5059233;28;20044;-67
2023/10/08 09:53:47;;;;;;;5.13;1.83;;;21.30;91.70;;;;;;5058380;28;20462;-67
2023/10/08 09:56:15;;;;;;;6.07;1.70;;;21.60;92.40;;;;;;5057097;28;20159;-71
2023/10/08 09:58:41;;;;;;;7.40;1.95;;;20.10;91.10;;;;;;5063115;28;20047;-71
2023/10/08 10:01:07;;;;;;;7.10;1.77;;;21.70;91.40;;;;;;5059101;28;20085;-68
2023/10/08 10:03:36;;;;;;;7.47;1.90;;;21.50;91.10;;;;;;5035969;28;20057;-68
2023/10/08 10:06:01;;;;;;;6.80;2.28;;;21.50;91.00;;;;;;5068348;28;20064;-67
2023/10/08 10:08:35;;;;;;;6.43;1.80;;;21.50;91.90;;;;;;5079642;28;20048;-69
2023/10/08 10:11:01;;;;;;;6.70;1.95;;;21.40;91.80;;;;;;5057415;28;20370;-67
2023/10/08 10:13:49;;;;;;;7.10;2.08;;;21.60;90.70;;;;;;5059722;28;20049;-68
2023/10/08 10:16:21;;;;;;;7.68;2.10;;;21.50;91.70;;;;;;5073406;28;20540;-68
2023/10/08 10:18:49;;;;;;;7.95;2.10;;;21.30;90.70;;;;;;5089750;28;20054;-68
2023/10/08 10:21:15;;;;;;;5.97;1.95;;;21.50;91.80;;;;;;5054544;28;20062;-70
2023/10/08 10:23:45;;;;;;;6.05;2.40;;;21.50;91.50;;;;;;5070173;28;20109;-67
2023/10/08 10:26:30;;;;;;;7.05;1.88;;;21.30;91.50;;;;;;5061260;28;20101;-67
2023/10/08 10:29:11;;;;;;;7.30;2.20;;;21.40;89.50;;;;;;5056721;28;20075;-67
2023/10/08 10:31:47;;;;;;;5.80;1.85;;;21.40;91.30;;;;;;5071026;28;20051;-67
2023/10/08 10:34:18;;;;;;;10.38;2.17;;;21.50;91.10;;;;;;5040546;28;20049;-68
2023/10/08 10:36:49;;;;;;;5.50;1.80;;;21.60;90.20;;;;;;5074296;28;20040;-69
2023/10/08 10:39:16;;;;;;;6.57;1.98;;;21.30;90.10;;;;;;5053036;28;20041;-70
2023/10/08 10:41:45;;;;;;;6.85;2.05;;;21.50;90.10;;;;;;5035489;28;20061;-70
2023/10/08 10:44:14;;;;;;;5.78;1.85;;;21.40;90.90;;;;;;5042543;28;20048;-70
2023/10/08 10:46:42;;;;;;;5.13;1.80;;;21.50;88.60;;;;;;5020123;28;20049;-70
2023/10/08 10:49:30;;;;;;;7.07;1.80;;;21.30;90.80;;;;;;5036958;28;20065;-68
2023/10/08 10:51:57;;;;;;;10.32;1.95;;;21.30;88.60;;;;;;5088382;28;20390;-70
2023/10/08 10:54:35;;;;;;;8.18;2.08;;;21.30;89.60;;;;;;5079433;28;20052;-68
2023/10/08 10:57:05;;;;;;;7.43;2.15;;;21.30;90.50;;;;;;5063244;28;20132;-70
2023/10/08 10:59:37;;;;;;;6.40;1.90;;;21.40;90.40;;;;;;5053747;28;20036;-70
2023/10/08 11:04:33;;;;;;;6.00;1.60;;;21.50;90.30;;;;;;5047368;28;20119;-70
2023/10/08 11:07:00;;;;;;;7.28;1.80;;;21.60;88.60;;;;;;5075306;28;20051;-70
2023/10/08 11:09:37;;;;;;;7.68;1.88;;;21.40;88.30;;;;;;5072238;28;20043;-70
2023/10/08 11:12:10;;;;;;;10.45;1.92;;;21.30;90.20;;;;;;5079963;28;20041;-70
2023/10/08 11:14:46;;;;;;;6.82;1.80;;;21.70;87.90;;;;;;5084446;28;20048;-70
2023/10/08 11:17:16;;;;;;;6.57;2.03;;;21.40;89.80;;;;;;5035250;28;20102;-69
2023/10/08 11:19:48;;;;;;;7.93;1.80;;;21.50;88.80;;;;;;5038963;28;20410;-70
2023/10/08 11:22:18;;;;;;;6.30;1.48;;;21.40;88.70;;;;;;5070436;28;20063;-69
2023/10/08 11:24:53;;;;;;;6.20;1.95;;;21.40;86.90;;;;;;5075043;28;20053;-70
2023/10/08 11:27:28;;;;;;;6.82;1.77;;;21.40;85.80;;;;;;5076481;28;20062;-69
2023/10/08 11:29:58;;;;;;;6.40;1.58;;;21.30;85.80;;;;;;5076086;28;20158;-68
2023/10/08 11:32:32;;;;;;;6.70;2.15;;;21.20;86.30;;;;;;5086232;28;20101;-68
2023/10/08 11:35:15;;;;;;;5.32;1.65;;;21.50;86.60;;;;;;5087749;28;20044;-68
2023/10/08 11:37:45;;;;;;;6.38;1.75;;;21.50;85.50;;;;;;5062223;28;20474;-69
2023/10/08 11:40:17;;;;;;;6.15;1.85;;;21.50;87.80;;;;;;5052109;28;20044;-69
2023/10/08 11:42:51;;;;;;;4.93;1.80;;;21.00;87.70;;;;;;5073385;28;20089;-69
2023/10/08 11:45:26;;;;;;;7.13;1.92;;;21.30;84.70;;;;;;5080378;28;20131;-66
2023/10/08 11:47:56;;;;;;;7.30;2.15;;;21.50;84.20;;;;;;5072423;28;20060;-67
2023/10/08 11:50:30;;;;;;;7.07;1.70;;;21.40;84.80;;;;;;5078866;28;20385;-67
2023/10/08 11:53:02;;;;;;;8.70;2.15;;;21.50;84.70;;;;;;5085193;28;20040;-67
2023/10/08 11:55:29;;;;;;;8.32;2.30;;;21.40;86.70;;;;;;5064878;28;20490;-66
2023/10/08 11:57:56;;;;;;;7.07;1.77;;;21.40;84.70;;;;;;5077675;28;20125;-66
2023/10/08 12:00:25;;;;;;;8.20;2.05;;;21.40;84.90;;;;;;5060924;28;20124;-67
2023/10/08 12:02:54;;;;;;;7.45;2.10;;;21.30;86.60;;;;;;5061887;28;20110;-66
2023/10/08 12:05:23;;;;;;;7.40;2.30;;;21.40;87.20;;;;;;5061834;28;20437;-66
2023/10/08 12:07:52;;;;;;;7.60;2.08;;;21.40;84.70;;;;;;5070915;28;20044;-67
2023/10/08 12:10:22;;;;;;;7.75;2.08;;;21.50;84.90;;;;;;5086017;28;20049;-66
2023/10/08 12:12:54;;;;;;;7.53;2.00;;;21.40;84.40;;;;;;5038605;28;20055;-66
2023/10/08 12:15:20;;;;;;;7.57;1.83;;;21.70;85.10;;;;;;5030076;28;20052;-66
2023/10/08 12:20:38;;;;;;;7.63;2.10;;;21.30;83.80;;;;;;5076081;28;20044;-67
2023/10/08 12:23:10;;;;;;;8.85;1.90;;;21.50;85.60;;;;;;5068770;28;20056;-67
2023/10/08 12:25:37;;;;;;;8.27;2.13;;;21.30;87.30;;;;;;5060205;28;20398;-66
2023/10/08 12:28:04;;;;;;;8.98;1.98;;;21.80;84.80;;;;;;5060454;28;20094;-66
2023/10/08 12:30:31;;;;;;;7.40;1.83;;;21.50;87.00;;;;;;5053786;28;20053;-66
2023/10/08 12:32:59;;;;;;;5.70;1.77;;;21.60;87.50;;;;;;5048432;28;20391;-67
2023/10/08 12:35:26;;;;;;;6.93;1.90;;;21.70;85.10;;;;;;5060084;28;20449;-66
2023/10/08 12:37:53;;;;;;;6.65;1.90;;;21.60;87.80;;;;;;5036905;28;20045;-66
2023/10/08 12:40:22;;;;;;;8.40;1.98;;;21.80;85.10;;;;;;5072460;28;20114;-67
2023/10/08 12:42:51;;;;;;;5.88;1.80;;;21.60;87.50;;;;;;5062605;28;20094;-67
2023/10/08 12:45:20;;;;;;;6.55;1.88;;;21.60;85.30;;;;;;5071101;28;20047;-66
2023/10/08 12:47:52;;;;;;;7.43;1.80;;;21.80;85.40;;;;;;5078040;28;20127;-71
2023/10/08 12:50:42;;;;;;;51.70;4.55;;;21.60;86.30;;;;;;5077545;28;20059;-70
2023/10/08 12:53:11;;;;;;;15.98;3.00;;;21.70;84.10;;;;;;5091255;28;20130;-69
2023/10/08 12:55:39;;;;;;;13.50;2.40;;;21.60;86.30;;;;;;5084556;28;20148;-70
2023/10/08 12:58:11;;;;;;;10.82;2.63;;;21.70;84.40;;;;;;5057533;28;20076;-69
2023/10/08 13:00:49;;;;;;;13.90;2.45;;;21.70;83.30;;;;;;5074531;28;20106;-70
2023/10/08 13:03:15;;;;;;;12.35;2.42;;;21.50;86.00;;;;;;5061035;28;20052;-69
2023/10/08 13:05:44;;;;;;;8.68;2.13;;;21.60;86.10;;;;;;5059935;28;20041;-69
2023/10/08 13:08:13;;;;;;;6.95;2.13;;;21.50;84.00;;;;;;5094881;28;20126;-69
2023/10/08 13:10:43;;;;;;;7.18;1.98;;;21.70;84.80;;;;;;5090050;28;20084;-70
2023/10/08 13:13:13;;;;;;;8.02;2.40;;;21.70;83.80;;;;;;5091619;28;20055;-69
2023/10/08 13:15:42;;;;;;;9.13;2.22;;;21.60;84.40;;;;;;5078852;28;20550;-69
2023/10/08 13:18:08;;;;;;;8.85;2.15;;;21.70;87.00;;;;;;5085685;28;20048;-70
2023/10/08 13:20:34;;;;;;;8.90;2.47;;;21.60;84.30;;;;;;5057501;28;20128;-70
2023/10/08 13:23:01;;;;;;;9.60;2.10;;;21.50;84.20;;;;;;5067687;28;20126;-70
2023/10/08 13:25:27;;;;;;;10.23;2.40;;;21.50;84.40;;;;;;5055669;28;20565;-67
2023/10/08 13:27:54;;;;;;;7.65;2.03;;;21.50;86.30;;;;;;5054868;28;20175;-70
2023/10/08 13:30:20;;;;;;;11.60;2.10;;;21.60;84.20;;;;;;5049940;28;20052;-69
2023/10/08 13:32:47;;;;;;;7.70;2.13;;;21.60;86.70;;;;;;5077358;28;20066;-69
2023/10/08 13:35:13;;;;;;;8.15;2.35;;;21.50;84.00;;;;;;5087554;28;20119;-68
2023/10/08 13:37:40;;;;;;;8.80;2.30;;;;;;;;;;5041708;28;20546;-69
2023/10/08 13:40:06;;;;;;;8.18;2.33;;;21.20;82.00;;;;;;5053469;28;20398;-67
2023/10/08 13:42:32;;;;;;;7.80;2.05;;;21.50;83.70;;;;;;5052867;28;20049;-68
2023/10/08 13:44:59;;;;;;;8.43;2.15;;;21.50;83.80;;;;;;5060472;28;20059;-67
2023/10/08 13:47:26;;;;;;;7.10;1.85;;;21.80;84.10;;;;;;5053345;28;20585;-67
2023/10/08 13:49:53;;;;;;;8.57;2.38;;;21.40;86.30;;;;;;5063940;28;20052;-67
2023/10/08 13:52:26;;;;;;;6.30;2.00;;;21.40;86.40;;;;;;5045928;28;20057;-67
2023/10/08 13:54:55;;;;;;;8.98;2.28;;;21.30;86.50;;;;;;5055704;28;20045;-66
2023/10/08 13:57:21;;;;;;;9.57;2.20;;;21.60;84.40;;;;;;5064360;28;20509;-68
2023/10/08 13:59:47;;;;;;;8.80;1.80;;;21.60;84.10;;;;;;5087565;28;20139;-67
2023/10/08 14:02:14;;;;;;;7.15;1.98;;;21.50;84.20;;;;;;5068036;28;20057;-70
2023/10/08 14:04:43;;;;;;;12.93;2.10;;;21.70;84.90;;;;;;5084161;28;20366;-67
2023/10/08 14:07:16;;;;;;;10.07;2.60;;;21.30;86.70;;;;;;5051079;28;20075;-69
2023/10/08 14:09:45;;;;;;;;;;;21.50;84.30;;;;;;5066644;28;20422;-67
2023/10/08 14:12:13;;;;;;;5.68;2.03;;;21.40;82.40;;;;;;5048507;28;19924;-70
2023/10/08 14:14:46;;;;;;;7.53;2.35;;;21.60;84.40;;;;;;5046804;28;20109;-73
2023/10/08 14:17:15;;;;;;;8.95;2.85;;;21.40;84.10;;;;;;5052892;28;20061;-70
2023/10/08 14:19:59;;;;;;;12.38;2.45;;;21.50;83.50;;;;;;5076848;28;20447;-68
2023/10/08 14:22:26;;;;;;;14.13;2.67;;;21.60;84.00;;;;;;5077962;28;20048;-70
2023/10/08 14:24:58;;;;;;;12.38;2.85;;;21.30;86.60;;;;;;5084794;28;20048;-69